Hovedside
METAR-TAF:

METAR-TAF

Lufthavner :

Rygge, Norge

Moss lufthavn

breddegrad: 59-23N, lengdegrad: 010-47E, høyde over havet: 5 m

Gjeldene værobservasjon

Denne rapporten ble laget for 25 minutter siden, klokken 05:50 UTC
Vind 2 kt fra skiftende retning
Temperatur -1°C
Luftfuktighet 86%
Trykk 1027 hPa
Sikt 10 km eller mer

METAR: ENRY 240550Z AUTO VRB02KT 9999NDV BKN090/// OVC160/// M01/M03 Q1027

Tid: 07:15 (06:15 UTC)

Varsel

Varsel gyldig fra 24. klokken 06 UTC til 25. klokken 06 UTC
Vind 10 kt fra Sør
Sikt 10 km eller mer
ingen skyer under 1500 m og ingen bygeskyer
Blir
fra 24. klokken 21 UTC til 24. klokken 23 UTC
Vind 8 kt fra Vest-sørvest

TAF: ENRY 2406/2506 19010KT CAVOK BECMG 2421/2423 25008KT

Værobservasjoner og værvarsel for over 4000 flyplasser (METAR- og TAF-rapporter).

Tilgjengelige stasjoner er representert av de røde og gule prikkene på kartet.

Hold musepekeren over prikken for å se navnet på stasjonen.

Klikk så for å se værobservasjoner og -varsler.

For å forandre kartet kan du klikke på den grønne knappen med svart kryss for å zoome inn, på den grønne knappen med strek for å zoome ut, eller på de grønne pilene for å se tilstøtende kart.


METAR-TAF: